Time;durP1;ratioP1;P1;durP2;ratioP2;P2;SDS_P1;SDS_P2;PMS_P1;PMS_P2;Temp;Humidity;BMP_temperature;BMP_pressure;BME280_temperature;BME280_humidity;BME280_pressure;Samples;Min_cycle;Max_cycle;Signal;HPM_P1;HPM_P2
2021/07/06 00:02:18;;;;;;;;;;;26.10;50.60;;;;;;5088395;28;19916;-58
2021/07/06 00:04:44;;;;;;;;;;;26.10;50.60;;;;;;5081075;28;20448;-60
2021/07/06 00:07:10;;;;;;;;;;;26.10;50.60;;;;;;5085697;28;19916;-58
2021/07/06 00:09:36;;;;;;;;;;;26.00;50.60;;;;;;5086887;28;19912;-61
2021/07/06 00:12:01;;;;;;;;;;;26.00;50.60;;;;;;5086831;28;20014;-58
2021/07/06 00:14:27;;;;;;;;;;;26.00;50.60;;;;;;5085329;28;20007;-59
2021/07/06 00:16:52;;;;;;;;;;;26.00;50.60;;;;;;5065222;28;19926;-59
2021/07/06 00:19:18;;;;;;;;;;;26.00;50.60;;;;;;5084360;28;19927;-58
2021/07/06 00:21:43;;;;;;;;;;;26.00;50.60;;;;;;5085674;28;20761;-61
2021/07/06 00:24:09;;;;;;;;;;;26.00;50.60;;;;;;5077070;28;19939;-56
2021/07/06 00:26:35;;;;;;;;;;;25.90;50.60;;;;;;5078255;28;20048;-62
2021/07/06 00:29:00;;;;;;;;;;;26.00;50.60;;;;;;5083286;28;19916;-59
2021/07/06 00:31:26;;;;;;;;;;;25.90;50.60;;;;;;5082831;28;19912;-60
2021/07/06 00:33:52;;;;;;;;;;;25.90;50.60;;;;;;5088455;28;19981;-57
2021/07/06 00:36:18;;;;;;;;;;;25.90;50.60;;;;;;5084495;28;19923;-54
2021/07/06 00:38:43;;;;;;;;;;;25.90;50.60;;;;;;5084575;28;19904;-60
2021/07/06 00:41:09;;;;;;;;;;;25.90;50.60;;;;;;5084654;28;19959;-59
2021/07/06 00:43:37;;;;;;;;;;;25.90;50.70;;;;;;5084363;28;19912;-59
2021/07/06 00:46:03;;;;;;;;;;;25.90;50.70;;;;;;5084503;28;19912;-58
2021/07/06 00:48:29;;;;;;;;;;;25.90;50.70;;;;;;5084829;28;19907;-58
2021/07/06 00:50:54;;;;;;;;;;;25.90;50.70;;;;;;5067243;28;20132;-58
2021/07/06 00:53:20;;;;;;;;;;;25.80;50.60;;;;;;5077654;28;20338;-57
2021/07/06 00:55:46;;;;;;;;;;;25.80;50.70;;;;;;5096096;28;19923;-58
2021/07/06 00:58:13;;;;;;;;;;;25.80;50.70;;;;;;5089463;28;20627;-61
2021/07/06 01:00:38;;;;;;;;;;;25.80;50.70;;;;;;5088755;28;19908;-56
2021/07/06 01:03:05;;;;;;;;;;;25.80;50.70;;;;;;5090477;28;19930;-59
2021/07/06 01:05:30;;;;;;;;;;;25.80;50.70;;;;;;5088672;28;19911;-53
2021/07/06 01:07:56;;;;;;;;;;;25.80;50.80;;;;;;5090795;28;19927;-59
2021/07/06 01:10:22;;;;;;;;;;;25.80;50.70;;;;;;5089961;28;19916;-57
2021/07/06 01:12:48;;;;;;;;;;;25.70;50.70;;;;;;5088031;28;20031;-58
2021/07/06 01:15:16;;;;;;;;;;;25.80;50.80;;;;;;5095824;28;20379;-60
2021/07/06 01:17:44;;;;;;;;;;;25.70;50.80;;;;;;5089406;28;19916;-60
2021/07/06 01:20:10;;;;;;;;;;;25.70;50.80;;;;;;5090417;28;19912;-57
2021/07/06 01:22:36;;;;;;;;;;;25.70;50.80;;;;;;5070097;28;19908;-60
2021/07/06 01:25:03;;;;;;;;;;;25.70;50.80;;;;;;5086275;28;19912;-59
2021/07/06 01:27:29;;;;;;;;;;;25.70;50.80;;;;;;5088052;28;20002;-61
2021/07/06 01:29:55;;;;;;;;;;;25.70;50.80;;;;;;5079552;28;20473;-54
2021/07/06 01:32:21;;;;;;;;;;;25.70;50.80;;;;;;5087866;28;19916;-58
2021/07/06 01:34:46;;;;;;;;;;;25.70;50.80;;;;;;5060565;28;19909;-56
2021/07/06 01:37:18;;;;;;;;;;;25.70;51.30;;;;;;5075495;28;19920;-60
2021/07/06 01:39:44;;;;;;;;;;;25.70;50.80;;;;;;5083445;28;19916;-57
2021/07/06 01:42:10;;;;;;;;;;;25.70;50.80;;;;;;5078508;28;20069;-59
2021/07/06 01:44:35;;;;;;;;;;;25.70;50.80;;;;;;5087281;28;20304;-61
2021/07/06 01:47:01;;;;;;;;;;;25.70;50.80;;;;;;5088755;28;19904;-60
2021/07/06 01:49:26;;;;;;;;;;;25.70;50.80;;;;;;5103203;28;19962;-58
2021/07/06 01:51:52;;;;;;;;;;;25.60;50.80;;;;;;5100507;28;20300;-60
2021/07/06 01:54:17;;;;;;;;;;;25.60;50.80;;;;;;5090452;28;19969;-60
2021/07/06 01:56:47;;;;;;;;;;;25.60;50.80;;;;;;5084006;28;19931;-57
2021/07/06 01:59:13;;;;;;;;;;;25.60;50.80;;;;;;5088098;28;19919;-55
2021/07/06 02:01:38;;;;;;;;;;;25.60;50.80;;;;;;5087745;28;20266;-59
2021/07/06 02:04:04;;;;;;;;;;;25.60;50.80;;;;;;5088329;28;19977;-59
2021/07/06 02:06:30;;;;;;;;;;;25.60;50.80;;;;;;5087998;28;19961;-59
2021/07/06 02:08:55;;;;;;;;;;;25.60;50.80;;;;;;5088920;28;20362;-59
2021/07/06 02:11:21;;;;;;;;;;;25.60;50.80;;;;;;5087665;28;20334;-55
2021/07/06 02:13:47;;;;;;;;;;;25.60;50.80;;;;;;5088628;28;19984;-61
2021/07/06 02:16:13;;;;;;;;;;;25.60;50.80;;;;;;5087174;28;19926;-59
2021/07/06 02:18:39;;;;;;;;;;;25.60;50.80;;;;;;5092211;28;19907;-58
2021/07/06 02:21:04;;;;;;;;;;;25.50;50.80;;;;;;5087293;28;19908;-58
2021/07/06 02:23:30;;;;;;;;;;;25.50;50.80;;;;;;5088993;28;19918;-57
2021/07/06 02:25:57;;;;;;;;;;;25.60;50.80;;;;;;5088866;28;19908;-55
2021/07/06 02:28:23;;;;;;;;;;;25.60;50.90;;;;;;5085196;28;20023;-59
2021/07/06 02:30:49;;;;;;;;;;;25.50;50.80;;;;;;5087797;28;20006;-59
2021/07/06 02:33:15;;;;;;;;;;;25.50;50.80;;;;;;5087190;28;20033;-59
2021/07/06 02:35:40;;;;;;;;;;;25.50;50.80;;;;;;5087303;28;19912;-57
2021/07/06 02:38:06;;;;;;;;;;;25.50;50.80;;;;;;5070714;28;20032;-60
2021/07/06 02:40:32;;;;;;;;;;;25.50;50.80;;;;;;5087392;28;19926;-57
2021/07/06 02:42:58;;;;;;;;;;;25.50;50.80;;;;;;5086752;28;19976;-60
2021/07/06 02:45:24;;;;;;;;;;;25.50;50.80;;;;;;5085709;28;19908;-56
2021/07/06 02:47:50;;;;;;;;;;;25.50;50.90;;;;;;5087439;28;19990;-62
2021/07/06 02:50:16;;;;;;;;;;;25.50;50.80;;;;;;5098664;28;20061;-62
2021/07/06 02:52:43;;;;;;;;;;;25.50;50.90;;;;;;5095332;28;19931;-58
2021/07/06 02:55:09;;;;;;;;;;;25.50;50.90;;;;;;5086847;28;19943;-62
2021/07/06 02:57:39;;;;;;;;;;;25.50;50.90;;;;;;5086199;28;19996;-59
2021/07/06 03:00:04;;;;;;;;;;;25.40;50.80;;;;;;5065857;28;19931;-57
2021/07/06 03:02:30;;;;;;;;;;;25.50;50.90;;;;;;5088305;28;19908;-55
2021/07/06 03:04:55;;;;;;;;;;;25.40;50.80;;;;;;5090739;28;20244;-60
2021/07/06 03:07:21;;;;;;;;;;;25.40;50.80;;;;;;5086803;28;19999;-57
2021/07/06 03:09:46;;;;;;;;;;;25.50;50.90;;;;;;5084849;28;19970;-59
2021/07/06 03:12:12;;;;;;;;;;;25.40;50.90;;;;;;5086556;28;19912;-57
2021/07/06 03:14:37;;;;;;;;;;;25.40;50.80;;;;;;5086641;28;20379;-60
2021/07/06 03:17:03;;;;;;;;;;;25.40;50.80;;;;;;5087398;28;19918;-60
2021/07/06 03:19:28;;;;;;;;;;;25.40;50.80;;;;;;5087062;28;20386;-58
2021/07/06 03:21:54;;;;;;;;;;;25.40;50.90;;;;;;5088253;28;19969;-60
2021/07/06 03:24:19;;;;;;;;;;;25.40;50.90;;;;;;5080499;28;19908;-57
2021/07/06 03:26:45;;;;;;;;;;;25.40;50.90;;;;;;5058234;28;20042;-60
2021/07/06 03:29:11;;;;;;;;;;;25.40;50.90;;;;;;5085759;28;19930;-55
2021/07/06 03:31:36;;;;;;;;;;;25.40;50.90;;;;;;5085820;28;19915;-59
2021/07/06 03:34:02;;;;;;;;;;;25.40;50.90;;;;;;5086445;28;19927;-58
2021/07/06 03:36:27;;;;;;;;;;;25.40;50.90;;;;;;5082989;28;19912;-56
2021/07/06 03:38:52;;;;;;;;;;;25.40;50.90;;;;;;5086051;28;20003;-62
2021/07/06 03:41:18;;;;;;;;;;;25.40;50.90;;;;;;5086011;28;20287;-58
2021/07/06 03:43:43;;;;;;;;;;;25.40;51.40;;;;;;5085890;28;19999;-59
2021/07/06 03:46:09;;;;;;;;;;;25.40;51.00;;;;;;5084953;28;19938;-58
2021/07/06 03:48:34;;;;;;;;;;;25.40;50.90;;;;;;5084862;28;19932;-57
2021/07/06 03:51:00;;;;;;;;;;;25.40;51.00;;;;;;5084263;28;20027;-53
2021/07/06 03:53:25;;;;;;;;;;;25.40;51.00;;;;;;5086438;28;19954;-55
2021/07/06 03:55:51;;;;;;;;;;;25.30;50.60;;;;;;5085790;28;19982;-58
2021/07/06 03:58:21;;;;;;;;;;;25.30;50.00;;;;;;5085560;28;19911;-61
2021/07/06 04:00:47;;;;;;;;;;;25.30;49.50;;;;;;5084614;28;20230;-57
2021/07/06 04:03:12;;;;;;;;;;;25.30;49.10;;;;;;5087411;28;19908;-61
2021/07/06 04:05:38;;;;;;;;;;;25.20;48.80;;;;;;5086125;28;19985;-58
2021/07/06 04:08:03;;;;;;;;;;;25.20;48.60;;;;;;5089574;28;19912;-59
2021/07/06 04:10:30;;;;;;;;;;;25.10;48.50;;;;;;5084565;28;19907;-59
2021/07/06 04:12:55;;;;;;;;;;;25.10;48.40;;;;;;5083234;28;19916;-62
2021/07/06 04:15:21;;;;;;;;;;;25.10;48.30;;;;;;5084177;28;19914;-59
2021/07/06 04:17:47;;;;;;;;;;;25.10;48.20;;;;;;5083698;28;19922;-62
2021/07/06 04:20:13;;;;;;;;;;;25.10;48.20;;;;;;5082101;28;20347;-61
2021/07/06 04:22:39;;;;;;;;;;;25.00;48.30;;;;;;5084578;28;19961;-55
2021/07/06 04:25:05;;;;;;;;;;;25.00;48.20;;;;;;5084821;28;19904;-57
2021/07/06 04:27:31;;;;;;;;;;;25.00;48.20;;;;;;5084844;28;20309;-58
2021/07/06 04:29:57;;;;;;;;;;;24.90;48.20;;;;;;5091511;28;19904;-57
2021/07/06 04:32:22;;;;;;;;;;;24.90;48.20;;;;;;5090442;28;19916;-57
2021/07/06 04:34:51;;;;;;;;;;;24.90;48.30;;;;;;5098563;28;19998;-60
2021/07/06 04:37:16;;;;;;;;;;;24.80;48.30;;;;;;5091481;28;19929;-60
2021/07/06 04:39:42;;;;;;;;;;;24.80;48.30;;;;;;5091791;28;20098;-58
2021/07/06 04:42:08;;;;;;;;;;;24.80;48.50;;;;;;5085212;28;19919;-62
2021/07/06 04:44:34;;;;;;;;;;;24.80;48.80;;;;;;5081378;28;20007;-57
2021/07/06 04:46:59;;;;;;;;;;;24.80;49.10;;;;;;5092001;28;19931;-58
2021/07/06 04:49:27;;;;;;;;;;;24.70;49.30;;;;;;5090265;28;19916;-57
2021/07/06 04:51:53;;;;;;;;;;;24.60;49.60;;;;;;5096446;28;19916;-61
2021/07/06 04:54:23;;;;;;;;;;;24.60;50.10;;;;;;5090457;28;20394;-58
2021/07/06 04:56:49;;;;;;;;;;;24.60;50.30;;;;;;5094909;28;20251;-56
2021/07/06 04:59:14;;;;;;;;;;;24.60;50.50;;;;;;5086962;28;19912;-60
2021/07/06 05:01:40;;;;;;;;;;;24.60;50.50;;;;;;5090302;28;19916;-57
2021/07/06 05:04:06;;;;;;;;;;;24.60;50.80;;;;;;5090124;28;19974;-55
2021/07/06 05:06:31;;;;;;;;;;;24.50;50.80;;;;;;5091531;28;19908;-56
2021/07/06 05:08:56;;;;;;;;;;;24.50;51.10;;;;;;5089656;28;19908;-61
2021/07/06 05:11:23;;;;;;;;;;;24.50;51.30;;;;;;5087277;28;19915;-59
2021/07/06 05:13:48;;;;;;;;;;;24.50;51.40;;;;;;5092564;28;20346;-57
2021/07/06 05:16:14;;;;;;;;;;;24.50;51.50;;;;;;5098503;28;20005;-59
2021/07/06 05:18:39;;;;;;;;;;;24.50;51.60;;;;;;5090270;28;19908;-53
2021/07/06 05:21:05;;;;;;;;;;;24.50;51.80;;;;;;5101264;28;19969;-56
2021/07/06 05:23:30;;;;;;;;;;;24.50;52.00;;;;;;5105499;28;19916;-59
2021/07/06 05:25:56;;;;;;;;;;;24.50;51.80;;;;;;5093887;28;19908;-57
2021/07/06 05:28:21;;;;;;;;;;;24.60;51.70;;;;;;5088297;28;19922;-59
2021/07/06 05:30:47;;;;;;;;;;;24.60;51.50;;;;;;5090132;28;19930;-57
2021/07/06 05:33:12;;;;;;;;;;;24.60;51.40;;;;;;5090996;28;20585;-60
2021/07/06 05:35:38;;;;;;;;;;;24.70;51.30;;;;;;5089936;28;19918;-57
2021/07/06 05:38:04;;;;;;;;;;;24.70;51.20;;;;;;5091913;28;20304;-57
2021/07/06 05:40:30;;;;;;;;;;;24.80;51.00;;;;;;5089843;28;19908;-57
2021/07/06 05:42:55;;;;;;;;;;;24.80;51.00;;;;;;5090904;28;19908;-59
2021/07/06 05:45:21;;;;;;;;;;;24.80;50.80;;;;;;5089011;28;20255;-54
2021/07/06 05:47:46;;;;;;;;;;;24.80;50.80;;;;;;5089834;28;20435;-61
2021/07/06 05:50:14;;;;;;;;;;;24.90;50.80;;;;;;5087793;28;20030;-60
2021/07/06 05:52:39;;;;;;;;;;;24.90;50.80;;;;;;5090120;28;19954;-60
2021/07/06 05:55:06;;;;;;;;;;;24.90;50.70;;;;;;5090091;28;19916;-58
2021/07/06 05:57:31;;;;;;;;;;;25.00;50.70;;;;;;5088766;28;19998;-59
2021/07/06 05:59:58;;;;;;;;;;;25.00;50.60;;;;;;5092396;28;20682;-59
2021/07/06 06:02:23;;;;;;;;;;;25.00;50.60;;;;;;5102740;28;20603;-58
2021/07/06 06:04:49;;;;;;;;;;;25.00;50.50;;;;;;5099347;28;19943;-57
2021/07/06 06:07:15;;;;;;;;;;;25.00;50.50;;;;;;5089150;28;19958;-59
2021/07/06 06:09:40;;;;;;;;;;;25.10;50.50;;;;;;5088154;28;20006;-60
2021/07/06 06:12:06;;;;;;;;;;;25.10;50.50;;;;;;5089199;28;19904;-59
2021/07/06 06:14:31;;;;;;;;;;;25.10;50.40;;;;;;5069740;28;19916;-58
2021/07/06 06:16:57;;;;;;;;;;;25.10;50.40;;;;;;5087654;28;20371;-60
2021/07/06 06:19:22;;;;;;;;;;;25.10;50.30;;;;;;5088610;28;19916;-57
2021/07/06 06:21:48;;;;;;;;;;;25.10;50.30;;;;;;5088130;28;19908;-58
2021/07/06 06:24:13;;;;;;;;;;;25.20;50.30;;;;;;5088717;28;19920;-61
2021/07/06 06:26:39;;;;;;;;;;;25.20;50.40;;;;;;5096573;28;20359;-57
2021/07/06 06:29:05;;;;;;;;;;;25.20;50.60;;;;;;5087768;28;19915;-59
2021/07/06 06:31:30;;;;;;;;;;;25.20;50.40;;;;;;5088495;28;19958;-61
2021/07/06 06:33:56;;;;;;;;;;;25.30;50.50;;;;;;5088244;28;20323;-60
2021/07/06 06:36:21;;;;;;;;;;;25.30;50.20;;;;;;5087791;28;19977;-62
2021/07/06 06:38:47;;;;;;;;;;;25.30;50.20;;;;;;5089613;28;19947;-61
2021/07/06 06:41:12;;;;;;;;;;;25.30;50.10;;;;;;5086746;28;19919;-57
2021/07/06 06:43:38;;;;;;;;;;;25.30;50.10;;;;;;5088218;28;20299;-57
2021/07/06 06:46:04;;;;;;;;;;;25.30;50.20;;;;;;5086932;28;19941;-60
2021/07/06 06:48:30;;;;;;;;;;;25.40;50.20;;;;;;5088797;28;20334;-55
2021/07/06 06:50:56;;;;;;;;;;;25.40;50.20;;;;;;5075104;28;19916;-56
2021/07/06 06:53:21;;;;;;;;;;;25.40;50.10;;;;;;5100953;28;20467;-60
2021/07/06 06:55:46;;;;;;;;;;;25.40;50.10;;;;;;5089113;28;19915;-57
2021/07/06 06:58:12;;;;;;;;;;;25.40;50.10;;;;;;5087738;28;20030;-61
2021/07/06 07:00:38;;;;;;;;;;;25.50;50.10;;;;;;5084531;28;19915;-57
2021/07/06 07:03:03;;;;;;;;;;;25.50;50.10;;;;;;5088126;28;20011;-58
2021/07/06 07:05:29;;;;;;;;;;;25.50;50.00;;;;;;5084131;28;20026;-58
2021/07/06 07:07:57;;;;;;;;;;;25.50;50.00;;;;;;5086876;28;19919;-57
2021/07/06 07:10:23;;;;;;;;;;;25.60;50.00;;;;;;5086590;28;19908;-59
2021/07/06 07:12:49;;;;;;;;;;;25.60;50.00;;;;;;5080323;28;20027;-59
2021/07/06 07:15:14;;;;;;;;;;;25.60;50.00;;;;;;5092788;28;20247;-59
2021/07/06 07:17:40;;;;;;;;;;;25.60;50.00;;;;;;5088586;28;19915;-58
2021/07/06 07:20:05;;;;;;;;;;;25.60;50.00;;;;;;5088009;28;19912;-58
2021/07/06 07:22:31;;;;;;;;;;;25.60;50.00;;;;;;5088613;28;19912;-57
2021/07/06 07:24:56;;;;;;;;;;;25.70;50.10;;;;;;5076643;28;19967;-59
2021/07/06 07:27:22;;;;;;;;;;;25.70;50.00;;;;;;5071072;28;19941;-60
2021/07/06 07:29:48;;;;;;;;;;;25.70;49.90;;;;;;5086035;28;19989;-60
2021/07/06 07:32:15;;;;;;;;;;;25.70;49.90;;;;;;5087658;28;20090;-62
2021/07/06 07:34:42;;;;;;;;;;;25.70;49.80;;;;;;5092062;28;19907;-57
2021/07/06 07:37:07;;;;;;;;;;;25.70;49.80;;;;;;5108520;28;19947;-59
2021/07/06 07:39:33;;;;;;;;;;;25.70;49.80;;;;;;5088742;28;19982;-61
2021/07/06 07:41:59;;;;;;;;;;;25.70;49.80;;;;;;5087461;28;19995;-59
2021/07/06 07:44:24;;;;;;;;;;;25.80;49.80;;;;;;5086692;28;20645;-59
2021/07/06 07:46:50;;;;;;;;;;;25.80;49.80;;;;;;5086721;28;20193;-58
2021/07/06 07:49:15;;;;;;;;;;;25.80;49.80;;;;;;5087163;28;20516;-56
2021/07/06 07:51:41;;;;;;;;;;;25.80;49.70;;;;;;5088488;28;19919;-59
2021/07/06 07:54:07;;;;;;;;;;;25.80;49.70;;;;;;5086788;28;19915;-59
2021/07/06 07:56:32;;;;;;;;;;;25.80;49.70;;;;;;5086862;28;20212;-60
2021/07/06 07:58:58;;;;;;;;;;;25.80;49.70;;;;;;5085640;28;19904;-61
2021/07/06 08:01:23;;;;;;;;;;;25.90;49.80;;;;;;5084405;28;19973;-57
2021/07/06 08:03:49;;;;;;;;;;;25.90;49.80;;;;;;5087885;28;19912;-60
2021/07/06 08:06:14;;;;;;;;;;;25.90;49.70;;;;;;5091934;28;19912;-60
2021/07/06 08:08:40;;;;;;;;;;;25.90;49.70;;;;;;5074713;28;19908;-59
2021/07/06 08:11:05;;;;;;;;;;;25.90;49.70;;;;;;5091376;28;20017;-61
2021/07/06 08:13:33;;;;;;;;;;;25.90;49.80;;;;;;5093995;28;19924;-56
2021/07/06 08:15:59;;;;;;;;;;;25.90;49.80;;;;;;5093604;28;19923;-60
2021/07/06 08:18:25;;;;;;;;;;;26.00;49.80;;;;;;5094962;28;20040;-59
2021/07/06 08:20:50;;;;;;;;;;;26.00;49.70;;;;;;5090079;28;19912;-61
2021/07/06 08:23:16;;;;;;;;;;;26.00;50.20;;;;;;5083992;28;19908;-61
2021/07/06 08:25:41;;;;;;;;;;;26.00;49.70;;;;;;5095292;28;19943;-61
2021/07/06 08:28:12;;;;;;;;;;;26.00;49.70;;;;;;5093793;28;19916;-59
2021/07/06 08:30:39;;;;;;;;;;;26.00;49.70;;;;;;5093131;28;19919;-57
2021/07/06 08:33:05;;;;;;;;;;;26.00;49.70;;;;;;5092140;28;20015;-59
2021/07/06 08:35:30;;;;;;;;;;;26.00;49.70;;;;;;5092459;28;20571;-59
2021/07/06 08:37:56;;;;;;;;;;;26.00;49.70;;;;;;5097408;28;19916;-58
2021/07/06 08:40:21;;;;;;;;;;;26.00;49.80;;;;;;5092533;28;20019;-57
2021/07/06 08:42:50;;;;;;;;;;;26.10;49.90;;;;;;5093492;28;19961;-58
2021/07/06 08:45:15;;;;;;;;;;;26.10;50.00;;;;;;5083795;28;19912;-58
2021/07/06 08:47:47;;;;;;;;;;;26.10;49.90;;;;;;5094415;28;20227;-57
2021/07/06 08:50:13;;;;;;;;;;;26.10;50.00;;;;;;5107758;28;20366;-58
2021/07/06 08:52:44;;;;;;;;;;;26.10;49.90;;;;;;5103593;28;19943;-59
2021/07/06 08:55:10;;;;;;;;;;;26.10;49.90;;;;;;5105222;28;19911;-58
2021/07/06 08:57:45;;;;;;;;;;;26.10;49.90;;;;;;5095857;28;19970;-55
2021/07/06 09:00:12;;;;;;;;;;;26.10;49.90;;;;;;5098498;28;19907;-56
2021/07/06 09:02:37;;;;;;;;;;;26.10;49.90;;;;;;5093116;28;19906;-53
2021/07/06 09:05:03;;;;;;;;;;;26.10;49.90;;;;;;5099578;28;19915;-56
2021/07/06 09:07:39;;;;;;;;;;;26.10;49.90;;;;;;5102545;28;20301;-59
2021/07/06 09:10:11;;;;;;;;;;;26.10;49.90;;;;;;5098523;28;19923;-56
2021/07/06 09:12:37;;;;;;;;;;;26.10;49.80;;;;;;5098328;28;20398;-59
2021/07/06 09:15:16;;;;;;;;;;;26.10;49.90;;;;;;5087878;28;19915;-57
2021/07/06 09:17:42;;;;;;;;;;;26.20;49.90;;;;;;5092274;28;20071;-58
2021/07/06 09:20:09;;;;;;;;;;;26.20;49.90;;;;;;5087678;28;20011;-58
2021/07/06 09:22:35;;;;;;;;;;;26.20;49.80;;;;;;5089863;28;20427;-56
2021/07/06 09:25:09;;;;;;;;;;;26.20;49.80;;;;;;5090025;28;19916;-57
2021/07/06 09:27:35;;;;;;;;;;;26.20;49.90;;;;;;5066751;28;19912;-55
2021/07/06 09:30:06;;;;;;;;;;;26.20;49.80;;;;;;5086564;28;19970;-57
2021/07/06 09:32:32;;;;;;;;;;;26.20;49.80;;;;;;5085654;28;19919;-56
2021/07/06 09:35:04;;;;;;;;;;;26.20;49.90;;;;;;5087097;28;20255;-55
2021/07/06 09:37:30;;;;;;;;;;;26.20;49.90;;;;;;5084127;28;19955;-58
2021/07/06 09:40:00;;;;;;;;;;;26.20;49.90;;;;;;5089112;28;19947;-59
2021/07/06 09:42:25;;;;;;;;;;;26.20;49.90;;;;;;5084975;28;20394;-59
2021/07/06 09:44:53;;;;;;;;;;;26.30;50.00;;;;;;5084463;28;19915;-54
2021/07/06 09:47:18;;;;;;;;;;;26.30;50.00;;;;;;5092716;28;19934;-57
2021/07/06 09:49:52;;;;;;;;;;;26.30;50.00;;;;;;5089783;28;19912;-58
2021/07/06 09:52:19;;;;;;;;;;;26.30;50.00;;;;;;5087814;28;19922;-57
2021/07/06 09:54:49;;;;;;;;;;;26.30;50.00;;;;;;5081542;28;19916;-58
2021/07/06 09:57:30;;;;;;;;;;;26.30;50.00;;;;;;5081621;28;19934;-55
2021/07/06 10:00:08;;;;;;;;;;;26.30;50.00;;;;;;5091357;28;19918;-53
2021/07/06 10:02:34;;;;;;;;;;;26.30;50.00;;;;;;5083380;28;19916;-54
2021/07/06 10:05:03;;;;;;;;;;;26.30;50.10;;;;;;5087607;28;19910;-58
2021/07/06 10:07:29;;;;;;;;;;;26.30;50.10;;;;;;5080839;28;19951;-55
2021/07/06 10:09:54;;;;;;;;;;;26.30;50.00;;;;;;5093000;28;19967;-59
2021/07/06 10:12:21;;;;;;;;;;;26.40;50.10;;;;;;5083953;28;19916;-53
2021/07/06 10:14:47;;;;;;;;;;;26.40;50.00;;;;;;5087382;28;19912;-53
2021/07/06 10:17:12;;;;;;;;;;;26.40;50.00;;;;;;5091512;28;20385;-55
2021/07/06 10:19:39;;;;;;;;;;;26.40;50.10;;;;;;5078580;28;19919;-56
2021/07/06 10:22:08;;;;;;;;;;;26.50;50.10;;;;;;5087586;28;20355;-56
2021/07/06 10:24:39;;;;;;;;;;;26.40;50.00;;;;;;5088454;28;19908;-51
2021/07/06 10:27:07;;;;;;;;;;;26.40;50.10;;;;;;5083274;28;20003;-54
2021/07/06 10:29:34;;;;;;;;;;;26.50;50.20;;;;;;5083426;28;19904;-59
2021/07/06 10:32:00;;;;;;;;;;;26.40;50.20;;;;;;5086925;28;19912;-56
2021/07/06 10:34:28;;;;;;;;;;;26.50;50.20;;;;;;5086683;28;19908;-55
2021/07/06 10:36:54;;;;;;;;;;;26.50;50.30;;;;;;5089252;28;20737;-55
2021/07/06 10:39:38;;;;;;;;;;;26.50;50.20;;;;;;5088115;28;19911;-57
2021/07/06 10:42:06;;;;;;;;;;;26.50;50.30;;;;;;5086472;28;19927;-60
2021/07/06 10:44:33;;;;;;;;;;;26.50;50.10;;;;;;5085203;28;19923;-58
2021/07/06 10:46:59;;;;;;;;;;;26.60;50.20;;;;;;5086189;28;19908;-57
2021/07/06 10:49:27;;;;;;;;;;;26.60;50.20;;;;;;5076647;28;20295;-59
2021/07/06 10:51:54;;;;;;;;;;;26.60;50.20;;;;;;5082241;28;19943;-58
2021/07/06 10:54:20;;;;;;;;;;;26.60;50.20;;;;;;5084407;28;19912;-53
2021/07/06 10:56:49;;;;;;;;;;;26.60;50.20;;;;;;5082191;28;19941;-55
2021/07/06 10:59:25;;;;;;;;;;;26.60;50.30;;;;;;5077091;28;20270;-54
2021/07/06 11:01:57;;;;;;;;;;;26.60;50.40;;;;;;5071148;28;19912;-53
2021/07/06 11:04:49;;;;;;;;;;;26.60;50.30;;;;;;5083750;28;19943;-58
2021/07/06 11:07:15;;;;;;;;;;;26.60;50.30;;;;;;5082932;28;20580;-55
2021/07/06 11:09:40;;;;;;;;;;;26.60;50.40;;;;;;5085067;28;19915;-53
2021/07/06 11:12:22;;;;;;;;;;;26.60;50.40;;;;;;5083996;28;20098;-56
2021/07/06 11:14:49;;;;;;;;;;;26.60;50.40;;;;;;5082503;28;19920;-57
2021/07/06 11:17:30;;;;;;;;;;;26.60;50.40;;;;;;5082623;28;19916;-53
2021/07/06 11:19:59;;;;;;;;;;;26.60;50.30;;;;;;5074675;28;19951;-51
2021/07/06 11:22:38;;;;;;;;;;;26.60;50.30;;;;;;5081752;28;19930;-57
2021/07/06 11:25:23;;;;;;;;;;;26.70;50.30;;;;;;5084161;28;20361;-60
2021/07/06 11:27:55;;;;;;;;;;;26.70;50.40;;;;;;5076253;28;19922;-51
2021/07/06 11:30:35;;;;;;;;;;;26.70;50.30;;;;;;5082096;28;20007;-52
2021/07/06 11:33:04;;;;;;;;;;;26.70;50.20;;;;;;5085529;28;19922;-58
2021/07/06 11:35:30;;;;;;;;;;;26.70;50.20;;;;;;5087566;28;19923;-53
2021/07/06 11:37:58;;;;;;;;;;;26.70;50.70;;;;;;5070440;28;20004;-52
2021/07/06 11:40:24;;;;;;;;;;;26.70;50.20;;;;;;5090300;28;19911;-56
2021/07/06 11:42:49;;;;;;;;;;;26.70;50.20;;;;;;5092370;28;19919;-54
2021/07/06 11:45:15;;;;;;;;;;;26.70;50.10;;;;;;5090761;28;20015;-57
2021/07/06 11:47:40;;;;;;;;;;;26.70;50.10;;;;;;5088268;28;19912;-54
2021/07/06 11:50:22;;;;;;;;;;;26.70;50.10;;;;;;5087563;28;20486;-56
2021/07/06 11:52:48;;;;;;;;;;;26.70;50.10;;;;;;5087895;28;20298;-55
2021/07/06 11:55:13;;;;;;;;;;;26.80;50.10;;;;;;5081897;28;20050;-60
2021/07/06 11:57:39;;;;;;;;;;;26.80;50.20;;;;;;5084514;28;19926;-59
2021/07/06 12:00:11;;;;;;;;;;;26.80;50.20;;;;;;5084778;28;20335;-56
2021/07/06 12:02:36;;;;;;;;;;;26.80;50.20;;;;;;5082390;28;19927;-59
2021/07/06 12:05:15;;;;;;;;;;;26.80;50.10;;;;;;5086693;28;19912;-56
2021/07/06 12:07:40;;;;;;;;;;;26.80;50.20;;;;;;5084866;28;19915;-55
2021/07/06 12:10:06;;;;;;;;;;;26.90;50.20;;;;;;5081785;28;20369;-54
2021/07/06 12:12:32;;;;;;;;;;;26.80;50.20;;;;;;5086084;28;20539;-54
2021/07/06 12:14:57;;;;;;;;;;;26.90;50.20;;;;;;5084691;28;19915;-57
2021/07/06 12:17:23;;;;;;;;;;;26.90;50.20;;;;;;5084829;28;19959;-60
2021/07/06 12:19:48;;;;;;;;;;;26.90;50.20;;;;;;5066203;28;19999;-57
2021/07/06 12:22:17;;;;;;;;;;;26.90;50.10;;;;;;5079058;28;19965;-57
2021/07/06 12:24:43;;;;;;;;;;;26.90;50.10;;;;;;5081465;28;19919;-59
2021/07/06 12:27:12;;;;;;;;;;;26.90;50.20;;;;;;5085782;28;19995;-57
2021/07/06 12:29:37;;;;;;;;;;;27.00;50.20;;;;;;5085246;28;19957;-59
2021/07/06 12:32:11;;;;;;;;;;;27.00;50.40;;;;;;5084293;28;20011;-59
2021/07/06 12:34:38;;;;;;;;;;;27.00;50.30;;;;;;5070783;28;19915;-60
2021/07/06 12:37:04;;;;;;;;;;;27.00;50.30;;;;;;5087388;28;20030;-57
2021/07/06 12:39:33;;;;;;;;;;;27.00;50.30;;;;;;5082747;28;19915;-59
2021/07/06 12:42:01;;;;;;;;;;;27.00;50.40;;;;;;5085669;28;19947;-59
2021/07/06 12:44:36;;;;;;;;;;;27.00;50.40;;;;;;5082945;28;19912;-59
2021/07/06 12:47:20;;;;;;;;;;;27.00;50.40;;;;;;5066002;28;19943;-59
2021/07/06 12:49:47;;;;;;;;;;;27.10;50.50;;;;;;5093853;28;19915;-58
2021/07/06 12:52:12;;;;;;;;;;;27.00;50.40;;;;;;5088103;28;19916;-59
2021/07/06 12:54:39;;;;;;;;;;;27.10;50.60;;;;;;5090310;28;20373;-55
2021/07/06 12:57:05;;;;;;;;;;;27.10;50.60;;;;;;5086556;28;19916;-59
2021/07/06 12:59:31;;;;;;;;;;;27.10;50.50;;;;;;5087668;28;19999;-61
2021/07/06 13:01:58;;;;;;;;;;;27.10;50.50;;;;;;5088133;28;19916;-57
2021/07/06 13:04:42;;;;;;;;;;;27.10;50.50;;;;;;5087565;28;19908;-56
2021/07/06 13:07:08;;;;;;;;;;;27.10;50.50;;;;;;5089836;28;19908;-59
2021/07/06 13:09:33;;;;;;;;;;;27.10;50.60;;;;;;5080960;28;21783;-54
2021/07/06 13:12:11;;;;;;;;;;;27.10;50.60;;;;;;5088179;28;19930;-61
2021/07/06 13:14:36;;;;;;;;;;;27.10;50.60;;;;;;5089014;28;19912;-57
2021/07/06 13:17:21;;;;;;;;;;;27.10;50.70;;;;;;5094054;28;19911;-59
2021/07/06 13:20:04;;;;;;;;;;;27.10;50.60;;;;;;5089474;28;19911;-59
2021/07/06 13:22:30;;;;;;;;;;;27.10;50.60;;;;;;5084936;28;20350;-57
2021/07/06 13:24:58;;;;;;;;;;;27.10;50.60;;;;;;5090827;28;20026;-59
2021/07/06 13:27:24;;;;;;;;;;;27.10;50.60;;;;;;5087682;28;19912;-57
2021/07/06 13:29:50;;;;;;;;;;;27.10;50.60;;;;;;5091189;28;19923;-60
2021/07/06 13:32:15;;;;;;;;;;;27.10;50.70;;;;;;5089861;28;19912;-58
2021/07/06 13:34:41;;;;;;;;;;;27.10;50.70;;;;;;5088000;28;19916;-62
2021/07/06 13:37:10;;;;;;;;;;;27.10;50.70;;;;;;5091703;28;19919;-57
2021/07/06 13:39:35;;;;;;;;;;;27.10;50.80;;;;;;5091302;28;20361;-61
2021/07/06 13:42:01;;;;;;;;;;;27.10;50.80;;;;;;5089351;28;19912;-62
2021/07/06 13:44:26;;;;;;;;;;;27.10;50.80;;;;;;5087540;28;19912;-59
2021/07/06 13:46:52;;;;;;;;;;;27.10;50.80;;;;;;5088656;28;19922;-62
2021/07/06 13:49:17;;;;;;;;;;;27.10;50.80;;;;;;5086929;28;19998;-62
2021/07/06 13:51:43;;;;;;;;;;;27.00;50.80;;;;;;5092100;28;19912;-59
2021/07/06 13:54:10;;;;;;;;;;;27.00;50.80;;;;;;5087676;28;19908;-55
2021/07/06 13:56:35;;;;;;;;;;;27.00;50.80;;;;;;5087908;28;19930;-60
2021/07/06 13:59:02;;;;;;;;;;;27.00;50.80;;;;;;5088416;28;20139;-61
2021/07/06 14:01:27;;;;;;;;;;;27.00;50.80;;;;;;5095492;28;19916;-59
2021/07/06 14:03:53;;;;;;;;;;;27.00;50.80;;;;;;5106092;28;20317;-58
2021/07/06 14:06:19;;;;;;;;;;;27.00;50.80;;;;;;5088711;28;19916;-59
2021/07/06 14:08:45;;;;;;;;;;;27.00;50.80;;;;;;5089295;28;19923;-56
2021/07/06 14:11:14;;;;;;;;;;;27.00;50.90;;;;;;5089335;28;19911;-59
2021/07/06 14:13:40;;;;;;;;;;;27.00;50.90;;;;;;5087907;28;19919;-62
2021/07/06 14:16:06;;;;;;;;;;;27.00;50.90;;;;;;5086313;28;20244;-59